createdAt,value
2023-04-16T00:00:12.754Z,99989.00
2023-04-16T00:05:15.071Z,100001.66
2023-04-16T00:10:16.690Z,99996.19
2023-04-16T00:15:18.231Z,100002.09
2023-04-16T00:20:20.485Z,100011.00
2023-04-16T00:25:22.108Z,100010.31
2023-04-16T00:30:23.736Z,100015.25
2023-04-16T00:35:25.369Z,100015.56
2023-04-16T00:40:30.180Z,100012.56
2023-04-16T00:45:31.870Z,100024.09
2023-04-16T00:50:34.500Z,100023.56
2023-04-16T00:55:36.637Z,100024.84
2023-04-16T01:00:38.221Z,100023.56
2023-04-16T01:05:40.297Z,100025.53
2023-04-16T01:10:42.047Z,100023.88
2023-04-16T01:15:43.753Z,100028.63
2023-04-16T01:20:46.408Z,100029.06
2023-04-16T01:25:48.523Z,100022.03
2023-04-16T01:30:50.195Z,100023.63
2023-04-16T01:35:59.770Z,100035.28
2023-04-16T01:41:01.907Z,100034.56
2023-04-16T01:46:24.006Z,100038.53
2023-04-16T01:51:25.642Z,100032.38
2023-04-16T01:56:27.366Z,100037.47
2023-04-16T02:01:29.561Z,100035.78
2023-04-16T02:06:31.671Z,100043.94
2023-04-16T02:11:33.238Z,100035.78
2023-04-16T02:16:34.948Z,100041.13
2023-04-16T02:21:46.343Z,100042.53
2023-04-16T02:26:48.121Z,100043.63
2023-04-16T02:31:52.880Z,100058.78
2023-04-16T02:36:55.395Z,100058.53
2023-04-16T02:41:57.956Z,100060.47
2023-04-16T02:46:59.555Z,100061.47
2023-04-16T02:52:01.668Z,100066.53
2023-04-16T02:57:03.446Z,100061.03
2023-04-16T03:02:05.113Z,100073.50
2023-04-16T03:07:06.703Z,100074.78
2023-04-16T03:12:08.426Z,100078.84
2023-04-16T03:17:10.041Z,100084.88
2023-04-16T03:22:11.822Z,100092.13
2023-04-16T03:27:13.391Z,100099.97
2023-04-16T03:32:15.028Z,100106.97
2023-04-16T03:37:16.865Z,100097.28
2023-04-16T03:42:18.683Z,100113.66
2023-04-16T03:47:20.708Z,100111.56
2023-04-16T03:52:23.918Z,100113.41
2023-04-16T03:57:26.950Z,100125.56
2023-04-16T04:02:32.831Z,100129.59
2023-04-16T04:07:34.570Z,100140.41
2023-04-16T04:12:36.223Z,100144.03
2023-04-16T04:17:37.929Z,100141.91
2023-04-16T04:22:39.602Z,100147.50
2023-04-16T04:27:41.234Z,100143.03
2023-04-16T04:32:43.286Z,100150.63
2023-04-16T04:37:45.076Z,100157.56
2023-04-16T04:42:50.554Z,100165.16
2023-04-16T04:47:55.341Z,100153.41
2023-04-16T04:52:57.311Z,100157.88
2023-04-16T04:57:58.974Z,100167.47
2023-04-16T05:03:06.216Z,100170.00
2023-04-16T05:08:07.954Z,100172.84
2023-04-16T05:13:09.542Z,100177.38
2023-04-16T05:18:11.413Z,100183.00
2023-04-16T05:23:13.038Z,100183.97
2023-04-16T05:28:14.612Z,100192.06
2023-04-16T05:33:16.161Z,100196.75
2023-04-16T05:38:17.702Z,100204.28
2023-04-16T05:43:19.342Z,100204.56
2023-04-16T05:48:20.982Z,100213.72
2023-04-16T05:53:23.611Z,100224.56
2023-04-16T05:58:25.195Z,100227.94
2023-04-16T06:03:27.450Z,100236.19
2023-04-16T06:08:29.470Z,100241.97
2023-04-16T06:13:31.270Z,100243.03
2023-04-16T06:18:32.846Z,100243.59
2023-04-16T06:23:34.461Z,100246.81
2023-04-16T06:28:36.031Z,100251.44
2023-04-16T06:33:37.617Z,100245.56
2023-04-16T06:38:39.230Z,100255.66
2023-04-16T06:43:41.106Z,100258.19
2023-04-16T06:48:42.752Z,100261.31
2023-04-16T06:53:44.379Z,100259.34
2023-04-16T06:58:45.997Z,100254.00
2023-04-16T07:03:47.800Z,100257.06
2023-04-16T07:08:49.691Z,100258.19
2023-04-16T07:13:51.278Z,100260.44
2023-04-16T07:18:52.885Z,100269.41
2023-04-16T07:23:55.151Z,100275.00
2023-04-16T07:28:56.751Z,100268.75
2023-04-16T07:33:58.534Z,100274.88
2023-04-16T07:39:00.202Z,100271.72
2023-04-16T07:44:01.866Z,100280.44
2023-04-16T07:49:03.583Z,100286.97
2023-04-16T07:54:05.370Z,100295.00
2023-04-16T07:59:20.968Z,100290.63
2023-04-16T08:04:25.741Z,100293.84
2023-04-16T08:09:28.863Z,100291.25
2023-04-16T08:14:30.855Z,100295.50
2023-04-16T08:19:32.421Z,100290.13
2023-04-16T08:24:34.287Z,100300.75
2023-04-16T08:29:36.105Z,100309.44
2023-04-16T08:34:37.958Z,100311.88
2023-04-16T08:39:39.547Z,100322.59
2023-04-16T08:44:49.204Z,100329.28
2023-04-16T08:49:52.835Z,100326.00
2023-04-16T08:55:12.206Z,100328.91
2023-04-16T09:00:14.420Z,100335.78
2023-04-16T09:05:21.666Z,100325.63
2023-04-16T09:10:23.286Z,100329.94
2023-04-16T09:15:28.103Z,100331.50
2023-04-16T09:20:29.697Z,100339.84
2023-04-16T09:25:34.951Z,100346.16
2023-04-16T09:30:37.554Z,100345.00
2023-04-16T09:35:49.659Z,100345.50
2023-04-16T09:41:07.202Z,100347.53
2023-04-16T09:46:12.147Z,100352.91
2023-04-16T09:51:13.738Z,100357.69
2023-04-16T09:56:15.397Z,100366.53
2023-04-16T10:01:18.322Z,100360.53
2023-04-16T10:06:22.190Z,100368.63
2023-04-16T10:11:24.138Z,100366.44
2023-04-16T10:16:26.085Z,100362.75
2023-04-16T10:21:33.700Z,100364.75
2023-04-16T10:26:36.247Z,100363.78
2023-04-16T10:31:39.006Z,100370.34
2023-04-16T10:36:40.638Z,100374.66
2023-04-16T10:41:42.669Z,100373.34
2023-04-16T10:46:50.825Z,100376.69
2023-04-16T10:51:56.679Z,100366.13
2023-04-16T10:57:00.788Z,100382.22
2023-04-16T11:02:09.605Z,100388.81
2023-04-16T11:07:11.536Z,100378.88
2023-04-16T11:12:14.831Z,100373.63
2023-04-16T11:17:16.931Z,100376.16
2023-04-16T11:22:18.604Z,100370.13
2023-04-16T11:27:20.251Z,100384.69
2023-04-16T11:32:22.682Z,100380.50
2023-04-16T11:37:34.208Z,100381.84
2023-04-16T11:42:43.469Z,100373.13
2023-04-16T11:47:53.321Z,100376.91
2023-04-16T11:52:58.034Z,100384.16
2023-04-16T11:58:12.321Z,100377.47
2023-04-16T12:03:16.532Z,100383.50
2023-04-16T12:08:30.916Z,100372.69
2023-04-16T12:13:40.399Z,100374.75
2023-04-16T12:18:59.662Z,100379.50
2023-04-16T12:24:01.250Z,100376.88
2023-04-16T12:29:22.862Z,100377.50
2023-04-16T12:34:28.931Z,100378.22
2023-04-16T12:39:47.592Z,100372.31
2023-04-16T12:44:49.679Z,100364.88
2023-04-16T12:49:51.289Z,100370.03
2023-04-16T12:54:53.345Z,100371.75
2023-04-16T12:59:58.320Z,100363.22
2023-04-16T13:05:00.124Z,100375.31
2023-04-16T13:10:02.053Z,100374.63
2023-04-16T13:15:04.117Z,100367.56
2023-04-16T13:20:06.184Z,100366.22
2023-04-16T13:25:08.476Z,100373.69
2023-04-16T13:30:10.615Z,100379.66
2023-04-16T13:35:12.238Z,100378.72
2023-04-16T13:40:13.936Z,100383.78
2023-04-16T13:45:15.711Z,100381.84
2023-04-16T13:50:17.514Z,100394.28
2023-04-16T13:55:19.285Z,100385.84
2023-04-16T14:00:20.957Z,100381.53
2023-04-16T14:05:25.148Z,100395.69
2023-04-16T14:10:28.138Z,100394.88
2023-04-16T14:15:30.008Z,100391.66
2023-04-16T14:20:31.691Z,100393.72
2023-04-16T14:25:33.771Z,100401.94
2023-04-16T14:30:35.370Z,100400.25
2023-04-16T14:35:36.988Z,100395.38
2023-04-16T14:40:38.573Z,100402.94
2023-04-16T14:45:40.168Z,100401.09
2023-04-16T14:50:44.144Z,100403.81
2023-04-16T14:55:45.833Z,100403.94
2023-04-16T15:00:47.428Z,100409.44
2023-04-16T15:05:55.487Z,100413.16
2023-04-16T15:10:57.365Z,100412.13
2023-04-16T15:16:00.783Z,100415.41
2023-04-16T15:21:02.401Z,100414.56
2023-04-16T15:26:04.143Z,100427.66
2023-04-16T15:31:05.815Z,100430.84
2023-04-16T15:36:07.481Z,100426.69
2023-04-16T15:41:10.736Z,100432.09
2023-04-16T15:46:12.413Z,100435.97
2023-04-16T15:51:14.064Z,100447.09
2023-04-16T15:56:15.872Z,100447.94
2023-04-16T16:01:17.926Z,100454.94
2023-04-16T16:06:20.782Z,100451.06
2023-04-16T16:11:22.417Z,100456.03
2023-04-16T16:16:24.065Z,100464.34
2023-04-16T16:21:26.242Z,100478.09
2023-04-16T16:26:28.038Z,100482.00
2023-04-16T16:31:29.664Z,100482.84
2023-04-16T16:36:34.220Z,100483.13
2023-04-16T16:41:41.773Z,100502.09
2023-04-16T16:46:43.511Z,100502.28
2023-04-16T16:51:46.186Z,100500.63
2023-04-16T16:56:47.778Z,100496.66
2023-04-16T17:01:49.357Z,100507.91
2023-04-16T17:06:51.194Z,100515.00
2023-04-16T17:11:52.850Z,100519.97
2023-04-16T17:16:54.637Z,100520.06
2023-04-16T17:21:56.444Z,100524.34
2023-04-16T17:26:58.491Z,100531.25
2023-04-16T17:32:00.238Z,100529.94
2023-04-16T17:37:02.297Z,100544.22
2023-04-16T17:42:04.045Z,100547.13
2023-04-16T17:47:05.659Z,100546.19
2023-04-16T17:52:07.277Z,100551.31
2023-04-16T17:57:08.893Z,100558.91
2023-04-16T18:02:10.607Z,100559.00
2023-04-16T18:07:12.333Z,100560.91
2023-04-16T18:12:13.886Z,100560.38
2023-04-16T18:17:15.604Z,100576.63
2023-04-16T18:22:17.156Z,100575.50
2023-04-16T18:27:18.836Z,100569.53
2023-04-16T18:32:20.619Z,100586.00
2023-04-16T18:37:22.809Z,100588.59
2023-04-16T18:42:24.536Z,100595.91
2023-04-16T18:47:26.174Z,100603.41
2023-04-16T18:52:27.857Z,100602.97
2023-04-16T18:57:29.569Z,100602.28
2023-04-16T19:02:31.335Z,100602.34
2023-04-16T19:07:32.964Z,100608.78
2023-04-16T19:12:34.526Z,100602.03
2023-04-16T19:17:36.223Z,100606.59
2023-04-16T19:22:38.354Z,100612.41
2023-04-16T19:27:40.232Z,100618.53
2023-04-16T19:32:41.947Z,100614.56
2023-04-16T19:37:43.666Z,100619.03
2023-04-16T19:42:45.404Z,100621.91
2023-04-16T19:47:48.766Z,100620.13
2023-04-16T19:52:50.378Z,100627.34
2023-04-16T19:57:52.010Z,100621.13
2023-04-16T20:02:53.694Z,100625.59
2023-04-16T20:07:55.881Z,100629.13
2023-04-16T20:12:57.457Z,100628.97
2023-04-16T20:17:59.154Z,100634.78
2023-04-16T20:23:00.805Z,100625.75
2023-04-16T20:28:02.361Z,100625.03
2023-04-16T20:33:04.703Z,100623.13
2023-04-16T20:38:06.414Z,100629.50
2023-04-16T20:43:10.251Z,100634.28
2023-04-16T20:48:12.413Z,100638.38
2023-04-16T20:53:14.056Z,100639.63
2023-04-16T20:58:15.640Z,100642.22
2023-04-16T21:03:17.524Z,100634.63
2023-04-16T21:08:22.336Z,100642.25
2023-04-16T21:13:23.931Z,100643.25
2023-04-16T21:18:25.584Z,100646.75
2023-04-16T21:23:27.238Z,100638.63
2023-04-16T21:28:29.396Z,100645.50
2023-04-16T21:33:31.085Z,100643.13
2023-04-16T21:38:32.707Z,100641.59
2023-04-16T21:43:34.389Z,100648.22
2023-04-16T21:48:36.014Z,100652.53
2023-04-16T21:53:39.014Z,100650.06
2023-04-16T21:58:40.794Z,100648.41
2023-04-16T22:03:42.452Z,100647.19
2023-04-16T22:08:44.176Z,100648.06
2023-04-16T22:13:47.523Z,100646.53
2023-04-16T22:18:49.397Z,100652.59
2023-04-16T22:23:50.989Z,100645.53
2023-04-16T22:28:52.706Z,100657.78
2023-04-16T22:33:54.336Z,100651.16
2023-04-16T22:38:55.948Z,100650.75
2023-04-16T22:43:57.519Z,100653.31
2023-04-16T22:48:59.083Z,100652.72
2023-04-16T22:54:00.825Z,100647.41
2023-04-16T22:59:02.391Z,100649.94
2023-04-16T23:04:04.093Z,100646.28
2023-04-16T23:09:05.904Z,100647.97
2023-04-16T23:14:08.327Z,100645.44
2023-04-16T23:19:14.769Z,100646.97
2023-04-16T23:24:17.120Z,100647.38
2023-04-16T23:29:18.794Z,100645.44
2023-04-16T23:34:20.405Z,100655.00
2023-04-16T23:39:22.080Z,100657.84
2023-04-16T23:44:23.708Z,100655.00
2023-04-16T23:49:25.432Z,100653.59
2023-04-16T23:54:27.029Z,100640.34
2023-04-16T23:59:28.704Z,100641.47
